Time;durP1;ratioP1;P1;durP2;ratioP2;P2;SDS_P1;SDS_P2;PMS_P1;PMS_P2;Temp;Humidity;BMP_temperature;BMP_pressure;BME280_temperature;BME280_humidity;BME280_pressure;Samples;Min_cycle;Max_cycle;Signal;HPM_P1;HPM_P2
2022/10/06 00:01:26;;;;;;;5.95;4.30;;;7.00;99.90;;;;;;5052838;28;20036;-51
2022/10/06 00:03:52;;;;;;;7.25;4.07;;;7.00;99.90;;;;;;5052545;28;20029;-54
2022/10/06 00:06:18;;;;;;;10.20;3.88;;;7.00;99.90;;;;;;5052611;28;20036;-53
2022/10/06 00:08:46;;;;;;;5.43;3.95;;;7.00;99.90;;;;;;5052641;28;20048;-54
2022/10/06 00:11:14;;;;;;;4.32;3.88;;;6.90;99.90;;;;;;5052489;28;20013;-54
2022/10/06 00:13:40;;;;;;;7.55;4.63;;;6.90;99.90;;;;;;5051188;28;20083;-52
2022/10/06 00:16:16;;;;;;;8.95;5.57;;;6.80;99.90;;;;;;5052402;28;20087;-54
2022/10/06 00:18:42;;;;;;;4.47;4.07;;;6.90;99.90;;;;;;5052528;28;20118;-54
2022/10/06 00:21:07;;;;;;;4.82;4.32;;;6.90;99.90;;;;;;5052140;28;20031;-53
2022/10/06 00:23:33;;;;;;;8.07;4.03;;;6.90;99.90;;;;;;5052211;28;20029;-53
2022/10/06 00:25:59;;;;;;;7.07;4.30;;;6.90;99.90;;;;;;5052280;28;20029;-54
2022/10/06 00:28:25;;;;;;;14.85;4.20;;;6.90;99.90;;;;;;5052199;28;20425;-53
2022/10/06 00:30:52;;;;;;;6.38;4.38;;;6.90;99.90;;;;;;5052078;28;20551;-52
2022/10/06 00:33:18;;;;;;;5.35;3.88;;;6.90;99.90;;;;;;5052209;28;20025;-52
2022/10/06 00:35:44;;;;;;;6.55;4.38;;;6.80;99.90;;;;;;5052192;28;20021;-51
2022/10/06 00:38:15;;;;;;;8.48;3.67;;;6.80;99.90;;;;;;5051884;28;20025;-52
2022/10/06 00:40:46;;;;;;;11.18;3.60;;;6.80;99.90;;;;;;5052130;28;20425;-52
2022/10/06 00:43:46;;;;;;;5.70;3.95;;;6.90;99.90;;;;;;5051226;28;20025;-54
2022/10/06 00:46:35;;;;;;;9.13;3.80;;;6.80;99.90;;;;;;5051990;28;20037;-52
2022/10/06 00:49:29;;;;;;;5.10;4.13;;;6.80;99.90;;;;;;5051225;28;20043;-51
2022/10/06 00:52:01;;;;;;;4.90;4.38;;;6.80;99.90;;;;;;5051195;28;20597;-51
2022/10/06 00:54:27;;;;;;;7.43;4.35;;;6.80;99.90;;;;;;5051872;28;20396;-51
2022/10/06 00:56:53;;;;;;;7.20;3.67;;;6.80;99.90;;;;;;5051667;28;20049;-52
2022/10/06 00:59:19;;;;;;;6.93;3.92;;;6.90;99.90;;;;;;5051774;28;20092;-52
2022/10/06 01:02:07;;;;;;;6.35;4.35;;;6.80;99.90;;;;;;5051884;28;20017;-51
2022/10/06 01:04:35;;;;;;;8.43;4.47;;;6.80;99.90;;;;;;5051769;28;20102;-52
2022/10/06 01:07:01;;;;;;;7.45;3.92;;;6.80;99.90;;;;;;5051429;28;20044;-52
2022/10/06 01:09:29;;;;;;;7.95;4.13;;;6.70;99.90;;;;;;5051452;28;20045;-51
2022/10/06 01:11:58;;;;;;;5.10;4.10;;;6.80;99.90;;;;;;5051578;28;20017;-51
2022/10/06 01:14:25;;;;;;;7.30;4.88;;;6.70;99.90;;;;;;5051683;28;20029;-54
2022/10/06 01:16:58;;;;;;;5.28;4.47;;;6.70;99.90;;;;;;5051397;28;20076;-52
2022/10/06 01:20:01;;;;;;;8.95;4.78;;;6.70;99.90;;;;;;5050194;28;20022;-52
2022/10/06 01:22:35;;;;;;;10.35;4.35;;;6.70;99.90;;;;;;5051506;28;20021;-52
2022/10/06 01:25:01;;;;;;;12.20;4.55;;;6.70;99.90;;;;;;5051332;28;20116;-51
2022/10/06 01:27:29;;;;;;;7.40;4.13;;;6.60;99.90;;;;;;5051351;28;20028;-53
2022/10/06 01:29:56;;;;;;;9.75;4.03;;;6.60;99.90;;;;;;5051401;28;20431;-52
2022/10/06 01:32:24;;;;;;;10.70;4.15;;;6.60;99.90;;;;;;5051309;28;20066;-51
2022/10/06 01:34:49;;;;;;;8.25;3.90;;;6.50;99.90;;;;;;5051295;28;20032;-51
2022/10/06 01:37:15;;;;;;;4.20;3.80;;;6.50;99.90;;;;;;5051443;28;20388;-52
2022/10/06 01:39:42;;;;;;;9.23;3.97;;;6.50;99.90;;;;;;5051311;28;20045;-53
2022/10/06 01:42:08;;;;;;;4.95;4.55;;;6.50;99.90;;;;;;5051120;28;20029;-51
2022/10/06 01:44:34;;;;;;;14.18;4.25;;;6.50;99.90;;;;;;5049937;28;20067;-51
2022/10/06 01:47:00;;;;;;;4.40;4.00;;;6.50;99.90;;;;;;5051297;28;20060;-53
2022/10/06 01:49:26;;;;;;;6.63;3.80;;;6.50;99.90;;;;;;5051172;28;20460;-53
2022/10/06 01:51:51;;;;;;;6.72;4.13;;;6.50;99.90;;;;;;5051013;28;20767;-52
2022/10/06 01:54:17;;;;;;;8.85;3.90;;;6.50;99.90;;;;;;5051231;28;20024;-52
2022/10/06 01:56:42;;;;;;;8.77;4.03;;;6.50;99.90;;;;;;5055115;28;20392;-53
2022/10/06 01:59:08;;;;;;;6.57;3.70;;;6.40;99.90;;;;;;5054866;28;20029;-51
2022/10/06 02:01:34;;;;;;;9.40;4.18;;;6.50;99.90;;;;;;5055059;28;20040;-52
2022/10/06 02:04:00;;;;;;;5.47;4.43;;;6.40;99.90;;;;;;5053673;28;20048;-51
2022/10/06 02:06:25;;;;;;;7.13;5.95;;;6.40;99.90;;;;;;5054848;28;20029;-52
2022/10/06 02:08:51;;;;;;;6.22;4.00;;;6.40;99.90;;;;;;5054710;28;20056;-53
2022/10/06 02:11:18;;;;;;;15.32;4.82;;;6.40;99.90;;;;;;5054754;28;20126;-52
2022/10/06 02:13:43;;;;;;;14.10;4.65;;;6.40;99.90;;;;;;5054940;28;20025;-52
2022/10/06 02:16:10;;;;;;;9.77;4.50;;;6.40;99.90;;;;;;5054619;28;20461;-52
2022/10/06 02:18:36;;;;;;;4.82;4.30;;;6.40;99.90;;;;;;5054797;28;20559;-52
2022/10/06 02:21:02;;;;;;;7.25;4.60;;;6.40;99.90;;;;;;5054388;28;20120;-53
2022/10/06 02:23:29;;;;;;;5.15;4.22;;;6.40;99.90;;;;;;5054714;28;20028;-51
2022/10/06 02:26:04;;;;;;;6.13;4.28;;;6.40;99.90;;;;;;5054372;28;20017;-52
2022/10/06 02:28:30;;;;;;;4.78;3.70;;;6.40;99.90;;;;;;5054734;28;20342;-52
2022/10/06 02:31:01;;;;;;;6.97;4.07;;;6.40;99.90;;;;;;5054312;28;20100;-51
2022/10/06 02:33:26;;;;;;;4.50;3.90;;;6.40;99.90;;;;;;5054452;28;20017;-51
2022/10/06 02:35:55;;;;;;;10.20;4.38;;;6.40;99.90;;;;;;5053089;28;20017;-52
2022/10/06 02:38:22;;;;;;;7.72;4.68;;;6.30;99.90;;;;;;5054291;28;20369;-52
2022/10/06 02:40:48;;;;;;;6.47;4.53;;;6.30;99.90;;;;;;5052982;28;20651;-52
2022/10/06 02:43:14;;;;;;;5.35;3.88;;;6.30;99.90;;;;;;5054319;28;20084;-51
2022/10/06 02:45:41;;;;;;;5.65;4.35;;;6.30;99.90;;;;;;5053032;28;20047;-52
2022/10/06 02:48:08;;;;;;;7.25;4.72;;;6.30;99.90;;;;;;5053920;28;20067;-52
2022/10/06 02:50:34;;;;;;;8.23;4.70;;;6.30;99.90;;;;;;5054192;28;20029;-52
2022/10/06 02:53:00;;;;;;;4.60;4.20;;;6.20;99.90;;;;;;5053792;28;20029;-52
2022/10/06 02:55:26;;;;;;;5.07;4.57;;;6.20;99.90;;;;;;5054155;28;20028;-53
2022/10/06 02:57:54;;;;;;;8.75;4.40;;;6.20;99.90;;;;;;5054016;28;20119;-52
2022/10/06 03:00:20;;;;;;;14.27;4.43;;;6.20;99.90;;;;;;5053828;28;20021;-53
2022/10/06 03:02:45;;;;;;;6.68;4.88;;;6.20;99.90;;;;;;5054036;28;20021;-52
2022/10/06 03:05:11;;;;;;;7.25;4.25;;;6.10;99.90;;;;;;5053162;28;20383;-52
2022/10/06 03:07:37;;;;;;;14.57;5.07;;;6.10;99.90;;;;;;5052206;28;20029;-52
2022/10/06 03:10:02;;;;;;;6.88;4.63;;;6.10;99.90;;;;;;5052529;28;20069;-52
2022/10/06 03:12:28;;;;;;;9.38;4.47;;;6.10;99.90;;;;;;5053682;28;20029;-52
2022/10/06 03:14:54;;;;;;;5.22;4.45;;;6.10;99.90;;;;;;5052635;28;20040;-55
2022/10/06 03:17:20;;;;;;;8.25;4.50;;;6.10;99.90;;;;;;5051369;28;20033;-52
2022/10/06 03:19:46;;;;;;;9.93;4.18;;;6.10;99.90;;;;;;5053253;28;20456;-55
2022/10/06 03:22:11;;;;;;;4.72;4.32;;;6.10;99.90;;;;;;5053263;28;20040;-55
2022/10/06 03:24:37;;;;;;;5.22;4.22;;;6.20;99.90;;;;;;5053569;28;20036;-57
2022/10/06 03:27:03;;;;;;;5.80;4.43;;;6.20;99.90;;;;;;5053319;28;20021;-56
2022/10/06 03:29:29;;;;;;;7.78;4.53;;;6.20;99.90;;;;;;5052290;28;20036;-54
2022/10/06 03:31:56;;;;;;;5.38;4.25;;;6.20;99.90;;;;;;5053336;28;20137;-54
2022/10/06 03:34:22;;;;;;;5.15;4.25;;;6.20;99.90;;;;;;5053273;28;20013;-52
2022/10/06 03:36:47;;;;;;;13.20;4.22;;;6.20;99.90;;;;;;5053184;28;20376;-54
2022/10/06 03:39:13;;;;;;;8.40;4.28;;;6.20;99.90;;;;;;5053198;28;20421;-51
2022/10/06 03:41:38;;;;;;;9.50;4.43;;;6.20;99.90;;;;;;5053272;28;20623;-53
2022/10/06 03:44:05;;;;;;;6.95;3.85;;;6.20;99.90;;;;;;5052975;28;20085;-52
2022/10/06 03:46:32;;;;;;;13.20;4.32;;;6.20;99.90;;;;;;5052997;28;20021;-54
2022/10/06 03:48:59;;;;;;;6.72;3.97;;;6.20;99.90;;;;;;5052937;28;20028;-56
2022/10/06 03:51:30;;;;;;;11.35;4.18;;;6.30;99.90;;;;;;5052544;28;20427;-50
2022/10/06 03:53:57;;;;;;;8.27;3.45;;;6.20;99.90;;;;;;5052306;28;20557;-55
2022/10/06 03:56:27;;;;;;;11.35;4.97;;;6.20;99.90;;;;;;5052621;28;20056;-54
2022/10/06 03:59:05;;;;;;;11.98;4.80;;;6.20;99.90;;;;;;5052400;28;20076;-55
2022/10/06 04:01:33;;;;;;;9.75;4.72;;;6.20;99.90;;;;;;5052413;28;20107;-53
2022/10/06 04:04:00;;;;;;;12.52;3.80;;;6.10;99.90;;;;;;5052100;28;20029;-52
2022/10/06 04:06:28;;;;;;;5.50;4.43;;;6.20;99.90;;;;;;5052374;28;20100;-53
2022/10/06 04:08:54;;;;;;;18.45;3.60;;;6.00;99.90;;;;;;5052089;28;20037;-52
2022/10/06 04:11:23;;;;;;;10.38;4.50;;;6.10;99.90;;;;;;5052628;28;20112;-53
2022/10/06 04:13:58;;;;;;;12.75;5.03;;;6.10;99.90;;;;;;5052203;28;20368;-51
2022/10/06 04:16:30;;;;;;;8.85;4.15;;;6.10;99.90;;;;;;5052558;28;20104;-54
2022/10/06 04:18:58;;;;;;;5.35;4.15;;;6.10;99.90;;;;;;5052331;28;20063;-55
2022/10/06 04:21:25;;;;;;;9.75;3.90;;;6.10;99.90;;;;;;5052211;28;20029;-50
2022/10/06 04:23:58;;;;;;;15.23;4.07;;;6.10;99.90;;;;;;5052194;28;20032;-53
2022/10/06 04:26:26;;;;;;;9.13;3.97;;;6.10;99.90;;;;;;5052323;28;20022;-51
2022/10/06 04:28:52;;;;;;;8.05;3.90;;;6.10;99.90;;;;;;5051993;28;20040;-53
2022/10/06 04:31:19;;;;;;;8.82;3.75;;;6.10;99.90;;;;;;5052153;28;20025;-53
2022/10/06 04:33:46;;;;;;;5.95;3.65;;;6.10;99.90;;;;;;5052298;28;20021;-53
2022/10/06 04:36:14;;;;;;;8.00;4.85;;;6.10;99.90;;;;;;5051974;28;20476;-52
2022/10/06 04:38:40;;;;;;;7.38;4.18;;;6.10;99.90;;;;;;5052150;28;20456;-52
2022/10/06 04:41:07;;;;;;;22.08;5.53;;;6.10;99.90;;;;;;5069835;28;20052;-53
2022/10/06 04:43:34;;;;;;;8.45;4.35;;;6.10;99.90;;;;;;5070800;28;20028;-51
2022/10/06 04:46:00;;;;;;;12.55;4.18;;;6.10;99.90;;;;;;5070410;28;20547;-51
2022/10/06 04:48:27;;;;;;;8.15;4.00;;;6.10;99.90;;;;;;5072001;28;20502;-54
2022/10/06 04:50:58;;;;;;;12.80;4.50;;;6.10;99.90;;;;;;5071272;28;20017;-52
2022/10/06 04:53:23;;;;;;;6.00;4.30;;;6.10;99.90;;;;;;5071363;28;20589;-52
2022/10/06 04:56:04;;;;;;;18.05;4.72;;;6.10;99.90;;;;;;5071692;28;20032;-54
2022/10/06 04:58:31;;;;;;;5.68;4.60;;;6.00;99.90;;;;;;5070410;28;20712;-53
2022/10/06 05:00:57;;;;;;;5.10;4.25;;;6.00;99.90;;;;;;5071336;28;20395;-54
2022/10/06 05:03:23;;;;;;;8.90;4.60;;;6.00;99.90;;;;;;5071825;28;20017;-53
2022/10/06 05:05:49;;;;;;;10.02;4.28;;;6.00;99.90;;;;;;5071450;28;20528;-52
2022/10/06 05:08:15;;;;;;;6.53;4.43;;;6.00;99.90;;;;;;5071446;28;20021;-52
2022/10/06 05:10:41;;;;;;;7.38;4.15;;;6.00;99.90;;;;;;5071592;28;20027;-52
2022/10/06 05:13:08;;;;;;;10.73;3.70;;;6.00;99.90;;;;;;5071283;28;20405;-56
2022/10/06 05:15:34;;;;;;;10.52;4.50;;;6.00;99.90;;;;;;5071617;28;20086;-54
2022/10/06 05:17:59;;;;;;;8.05;3.60;;;6.00;99.90;;;;;;5071110;28;20028;-52
2022/10/06 05:20:25;;;;;;;6.88;3.40;;;6.00;99.90;;;;;;5071476;28;20067;-54
2022/10/06 05:22:50;;;;;;;5.88;3.90;;;6.00;99.90;;;;;;5071258;28;20052;-53
2022/10/06 05:25:17;;;;;;;7.25;4.53;;;5.90;99.90;;;;;;5070032;28;20025;-52
2022/10/06 05:27:42;;;;;;;9.32;4.25;;;6.00;99.90;;;;;;5070066;28;20056;-53
2022/10/06 05:30:08;;;;;;;21.55;4.18;;;6.00;99.90;;;;;;5074600;28;20090;-54
2022/10/06 05:32:34;;;;;;;19.67;4.50;;;6.10;99.90;;;;;;5078189;28;20486;-53
2022/10/06 05:35:00;;;;;;;12.63;4.50;;;6.10;99.90;;;;;;5077787;28;20068;-51
2022/10/06 05:37:25;;;;;;;9.07;4.63;;;6.10;99.90;;;;;;5076645;28;20093;-51
2022/10/06 05:39:51;;;;;;;11.65;4.13;;;6.10;99.90;;;;;;5078174;28;20147;-53
2022/10/06 05:42:17;;;;;;;13.75;4.18;;;6.20;99.90;;;;;;5078007;28;20353;-51
2022/10/06 05:44:42;;;;;;;7.45;3.67;;;6.20;99.90;;;;;;5078068;28;20048;-53
2022/10/06 05:47:08;;;;;;;6.95;3.78;;;6.20;99.90;;;;;;5077707;28;20025;-53
2022/10/06 05:49:33;;;;;;;8.48;4.35;;;6.20;99.90;;;;;;5077984;28;20029;-52
2022/10/06 05:51:59;;;;;;;6.47;3.97;;;6.30;99.90;;;;;;5077628;28;20036;-52
2022/10/06 05:54:25;;;;;;;8.73;4.15;;;6.30;99.90;;;;;;5077832;28;20039;-52
2022/10/06 05:56:50;;;;;;;16.30;5.20;;;6.40;99.90;;;;;;5077728;28;20025;-52
2022/10/06 05:59:16;;;;;;;14.35;4.75;;;6.50;99.90;;;;;;5077746;28;20074;-51
2022/10/06 06:01:43;;;;;;;13.23;4.35;;;6.60;99.90;;;;;;5078001;28;20024;-53
2022/10/06 06:04:11;;;;;;;12.32;4.30;;;6.70;99.90;;;;;;5077539;28;20025;-52
2022/10/06 06:06:39;;;;;;;6.72;5.95;;;6.80;99.90;;;;;;5077586;28;20017;-53
2022/10/06 06:09:19;;;;;;;11.35;4.43;;;6.90;99.90;;;;;;5077624;28;20486;-52
2022/10/06 06:11:47;;;;;;;11.25;5.10;;;7.00;99.90;;;;;;5077474;28;20037;-53
2022/10/06 06:14:18;;;;;;;13.13;5.03;;;7.10;99.90;;;;;;5077533;28;20551;-53
2022/10/06 06:16:45;;;;;;;12.73;5.35;;;7.20;99.90;;;;;;5077804;28;20024;-52
2022/10/06 06:19:13;;;;;;;11.82;4.30;;;7.30;99.90;;;;;;5077331;28;20051;-52
2022/10/06 06:21:40;;;;;;;8.85;5.45;;;7.40;99.90;;;;;;5077643;28;20139;-53
2022/10/06 06:24:06;;;;;;;7.00;3.92;;;7.50;99.90;;;;;;5077146;28;20123;-52
2022/10/06 06:26:34;;;;;;;9.18;4.60;;;7.50;99.90;;;;;;5077627;28;20372;-53
2022/10/06 06:29:04;;;;;;;12.85;5.85;;;7.60;99.90;;;;;;5077035;28;20020;-50
2022/10/06 06:31:32;;;;;;;7.85;5.93;;;7.70;99.90;;;;;;5077397;28;20055;-52
2022/10/06 06:34:00;;;;;;;7.47;5.32;;;7.90;99.90;;;;;;5077495;28;20032;-50
2022/10/06 06:36:34;;;;;;;8.90;5.28;;;8.10;99.90;;;;;;5077480;28;20051;-53
2022/10/06 06:39:03;;;;;;;13.82;5.28;;;8.30;99.90;;;;;;5077383;28;20082;-52
2022/10/06 06:41:31;;;;;;;8.85;4.80;;;8.50;99.90;;;;;;5074723;28;20083;-50
2022/10/06 06:44:00;;;;;;;10.27;5.40;;;8.70;99.90;;;;;;5073360;28;20021;-53
2022/10/06 06:46:30;;;;;;;9.88;6.60;;;8.80;99.90;;;;;;5073674;28;20029;-51
2022/10/06 06:49:03;;;;;;;7.35;5.43;;;9.00;99.90;;;;;;5073810;28;20391;-55
2022/10/06 06:51:34;;;;;;;7.72;5.22;;;9.20;99.90;;;;;;5073726;28;20017;-52
2022/10/06 06:54:01;;;;;;;11.43;5.80;;;9.40;99.90;;;;;;5073387;28;20058;-52
2022/10/06 06:56:28;;;;;;;6.30;5.13;;;9.40;99.90;;;;;;5074119;28;20024;-50
2022/10/06 06:58:54;;;;;;;12.18;5.95;;;9.50;99.90;;;;;;5073813;28;20033;-51
2022/10/06 07:01:22;;;;;;;10.95;6.78;;;9.60;99.90;;;;;;5073929;28;20417;-52
2022/10/06 07:03:53;;;;;;;9.20;6.80;;;9.70;99.90;;;;;;5073924;28;20100;-53
2022/10/06 07:06:20;;;;;;;6.80;5.68;;;9.90;99.90;;;;;;5073914;28;20032;-51
2022/10/06 07:08:47;;;;;;;12.45;7.68;;;10.00;99.90;;;;;;5073301;28;20140;-54
2022/10/06 07:11:22;;;;;;;8.48;5.32;;;10.10;99.90;;;;;;5072961;28;20029;-53
2022/10/06 07:13:52;;;;;;;12.27;5.03;;;10.20;99.90;;;;;;5073266;28;20032;-53
2022/10/06 07:27:25;;;;;;;8.40;4.57;;;10.90;99.90;;;;;;5072602;28;20035;-53
2022/10/06 07:29:53;;;;;;;10.95;5.18;;;11.00;99.90;;;;;;5071967;28;20024;-50
2022/10/06 07:32:24;;;;;;;9.30;4.68;;;11.10;99.90;;;;;;5072431;28;20020;-52
2022/10/06 07:34:51;;;;;;;9.45;4.57;;;11.30;99.90;;;;;;5071930;28;20351;-52
2022/10/06 07:37:17;;;;;;;3.80;3.40;;;11.40;99.90;;;;;;5072040;28;20387;-52
2022/10/06 07:39:43;;;;;;;6.38;3.38;;;11.60;99.90;;;;;;5072000;28;20031;-51
2022/10/06 07:42:12;;;;;;;4.93;3.80;;;11.70;99.90;;;;;;5071712;28;20059;-52
2022/10/06 07:44:38;;;;;;;8.25;4.13;;;11.90;99.90;;;;;;5071806;28;20028;-51
2022/10/06 07:47:05;;;;;;;9.02;3.47;;;12.10;99.90;;;;;;5071673;28;20398;-51
2022/10/06 07:49:31;;;;;;;7.32;3.67;;;12.30;99.90;;;;;;5071904;28;20116;-51
2022/10/06 07:51:57;;;;;;;7.65;3.08;;;12.40;99.90;;;;;;5071462;28;20107;-51
2022/10/06 07:54:24;;;;;;;7.47;3.75;;;12.60;99.90;;;;;;5071535;28;20047;-52
2022/10/06 07:56:50;;;;;;;8.25;3.03;;;12.80;99.90;;;;;;5071580;28;20028;-51
2022/10/06 07:59:17;;;;;;;3.10;2.80;;;13.00;99.90;;;;;;5071391;28;20070;-51
2022/10/06 08:01:44;;;;;;;4.70;2.90;;;13.20;99.90;;;;;;5071613;28;20107;-50
2022/10/06 08:04:10;;;;;;;4.97;3.38;;;13.40;99.90;;;;;;5071237;28;20119;-51
2022/10/06 08:06:37;;;;;;;8.48;3.72;;;13.60;99.90;;;;;;5071614;28;20025;-50
2022/10/06 08:09:04;;;;;;;4.55;3.13;;;13.80;99.90;;;;;;5070834;28;20060;-50
2022/10/06 08:11:30;;;;;;;7.85;4.32;;;14.00;99.90;;;;;;5071475;28;20067;-51
2022/10/06 08:13:56;;;;;;;5.25;3.72;;;14.20;99.90;;;;;;5071088;28;20028;-51
2022/10/06 08:16:28;;;;;;;4.07;2.80;;;14.40;99.90;;;;;;5071377;28;20021;-52
2022/10/06 08:19:10;;;;;;;6.07;2.67;;;14.70;99.90;;;;;;5070891;28;20438;-52
2022/10/06 08:21:37;;;;;;;5.47;2.58;;;15.00;99.90;;;;;;5070024;28;20119;-51
2022/10/06 08:24:03;;;;;;;3.30;2.30;;;15.20;99.90;;;;;;5070625;28;20021;-51
2022/10/06 08:26:30;;;;;;;7.72;2.20;;;15.50;99.90;;;;;;5071147;28;20487;-51
2022/10/06 08:28:58;;;;;;;13.40;2.88;;;15.80;99.90;;;;;;5070967;28;20020;-52
2022/10/06 08:31:24;;;;;;;2.85;2.22;;;16.10;99.90;;;;;;5069762;28;20024;-51
2022/10/06 08:33:54;;;;;;;3.95;2.15;;;16.40;99.90;;;;;;5070717;28;20032;-51
2022/10/06 08:36:21;;;;;;;3.10;2.28;;;16.60;99.90;;;;;;5070954;28;20028;-52
2022/10/06 08:38:48;;;;;;;4.53;2.05;;;16.80;99.90;;;;;;5070928;28;20027;-52
2022/10/06 08:41:43;;;;;;;3.42;2.20;;;17.10;99.90;;;;;;5070611;28;20315;-52
2022/10/06 08:44:14;;;;;;;6.28;2.05;;;17.30;99.90;;;;;;5070734;28;20028;-52
2022/10/06 08:47:02;;;;;;;2.40;1.85;;;17.30;99.90;;;;;;5070864;28;20029;-50
2022/10/06 08:49:38;;;;;;;2.83;1.83;;;17.30;99.90;;;;;;5069567;28;20467;-52
2022/10/06 08:52:20;;;;;;;5.03;1.80;;;17.10;99.90;;;;;;5070316;28;20043;-51
2022/10/06 08:55:04;;;;;;;4.28;2.40;;;17.20;99.90;;;;;;5070722;28;20505;-52
2022/10/06 08:58:28;;;;;;;3.67;2.10;;;17.30;99.90;;;;;;5070641;28;20028;-52
2022/10/06 09:01:14;;;;;;;3.20;1.77;;;17.50;99.90;;;;;;5067584;28;20491;-53
2022/10/06 09:03:46;;;;;;;2.35;1.83;;;17.60;99.90;;;;;;5050631;28;20036;-52
2022/10/06 09:06:27;;;;;;;4.28;1.80;;;17.70;99.90;;;;;;5068923;28;20139;-51
2022/10/06 09:09:15;;;;;;;2.60;2.13;;;17.90;99.90;;;;;;5070139;28;20032;-53
2022/10/06 09:12:22;;;;;;;15.50;2.55;;;18.10;99.90;;;;;;5070864;28;20028;-52
2022/10/06 09:14:54;;;;;;;3.45;2.22;;;18.40;99.90;;;;;;5069372;28;20040;-53
2022/10/06 09:17:34;;;;;;;2.13;1.88;;;18.60;99.90;;;;;;5070370;28;20229;-52
2022/10/06 09:23:16;;;;;;;8.18;2.90;;;19.00;99.90;;;;;;5054309;28;20082;-52
2022/10/06 09:25:43;;;;;;;9.13;2.35;;;19.10;99.90;;;;;;5069012;28;20020;-52
2022/10/06 09:28:14;;;;;;;7.20;2.35;;;19.20;99.90;;;;;;5070007;28;20024;-52
2022/10/06 09:30:42;;;;;;;7.65;2.33;;;19.40;99.90;;;;;;5070451;28;20017;-52
2022/10/06 09:33:19;;;;;;;8.05;2.58;;;19.60;99.20;;;;;;5070019;28;20078;-51
2022/10/06 09:36:05;;;;;;;9.65;2.25;;;19.80;99.00;;;;;;5070320;28;20027;-54
2022/10/06 09:38:52;;;;;;;9.00;2.08;;;19.80;98.20;;;;;;5070269;28;20028;-52
2022/10/06 09:41:21;;;;;;;5.95;2.47;;;20.00;99.50;;;;;;5069907;28;20024;-53
2022/10/06 09:43:59;;;;;;;5.63;1.98;;;20.10;99.00;;;;;;5070136;28;20107;-54
2022/10/06 09:46:34;;;;;;;7.75;2.13;;;20.10;95.70;;;;;;5070283;28;20229;-56
2022/10/06 09:49:06;;;;;;;5.65;1.83;;;20.30;94.50;;;;;;5069748;28;20024;-52
2022/10/06 09:51:32;;;;;;;6.43;2.03;;;20.40;95.60;;;;;;5070124;28;20029;-55
2022/10/06 09:54:12;;;;;;;5.93;1.60;;;20.70;94.70;;;;;;5069999;28;20093;-51
2022/10/06 09:56:40;;;;;;;3.78;1.50;;;20.90;93.10;;;;;;5070496;28;20028;-54
2022/10/06 09:59:34;;;;;;;2.55;1.90;;;21.20;92.20;;;;;;5070013;28;20405;-53
2022/10/06 10:02:02;;;;;;;3.92;2.03;;;21.50;91.20;;;;;;5069596;28;20021;-53
2022/10/06 10:04:36;;;;;;;6.03;1.63;;;21.10;90.50;;;;;;5069786;28;20742;-54
2022/10/06 10:07:14;;;;;;;;;;;21.40;89.30;;;;;;5070386;28;20074;-53
2022/10/06 10:09:41;;;;;;;4.68;2.00;;;21.20;89.40;;;;;;5069890;28;20062;-54
2022/10/06 10:12:23;;;;;;;6.50;1.65;;;21.30;91.50;;;;;;5069680;28;20388;-52
2022/10/06 10:15:09;;;;;;;7.72;2.10;;;21.60;90.30;;;;;;5069740;28;20049;-52
2022/10/06 10:18:01;;;;;;;5.13;2.03;;;21.60;89.70;;;;;;5072026;28;20431;-51
2022/10/06 10:20:38;;;;;;;5.72;1.67;;;21.70;88.80;;;;;;5073522;28;20044;-52
2022/10/06 10:23:29;;;;;;;4.15;1.75;;;23.00;87.50;;;;;;5073043;28;20029;-52
2022/10/06 10:26:03;;;;;;;6.15;1.70;;;24.70;83.40;;;;;;5073219;28;20025;-54
2022/10/06 10:28:32;;;;;;;10.45;1.75;;;25.50;75.40;;;;;;5073546;28;20026;-52
2022/10/06 10:31:12;;;;;;;5.30;2.10;;;26.60;71.80;;;;;;5073047;28;20070;-55
2022/10/06 10:33:44;;;;;;;5.40;1.90;;;27.00;68.70;;;;;;5073438;28;20024;-52
2022/10/06 10:36:13;;;;;;;6.43;1.73;;;26.80;67.20;;;;;;5072984;28;20032;-51
2022/10/06 10:38:41;;;;;;;13.05;1.83;;;27.40;65.20;;;;;;5073301;28;20031;-56
2022/10/06 10:41:10;;;;;;;10.90;1.48;;;27.30;62.80;;;;;;5072938;28;20408;-57
2022/10/06 10:44:02;;;;;;;2.90;1.20;;;27.80;60.00;;;;;;5073196;28;20356;-56
2022/10/06 10:46:37;;;;;;;8.60;1.63;;;29.50;58.00;;;;;;5073159;28;20024;-53
2022/10/06 10:49:06;;;;;;;4.22;1.50;;;28.40;58.10;;;;;;5073345;28;20471;-54
2022/10/06 10:51:39;;;;;;;11.00;1.70;;;28.50;57.90;;;;;;5073049;28;20115;-55
2022/10/06 10:54:17;;;;;;;9.93;1.50;;;28.20;58.10;;;;;;5072674;28;20043;-56
2022/10/06 10:56:47;;;;;;;16.48;2.08;;;28.60;57.50;;;;;;5072874;28;20025;-58
2022/10/06 10:59:22;;;;;;;9.60;1.58;;;28.50;60.00;;;;;;5073111;28;20016;-54
2022/10/06 11:02:12;;;;;;;4.05;1.67;;;28.10;59.50;;;;;;5071268;28;20032;-56
2022/10/06 11:04:42;;;;;;;11.88;2.50;;;27.50;60.10;;;;;;5073190;28;20024;-52
2022/10/06 11:07:19;;;;;;;6.72;1.70;;;27.00;61.50;;;;;;5073623;28;20649;-55
2022/10/06 11:10:21;;;;;;;8.95;1.67;;;27.50;61.00;;;;;;5073791;28;20047;-57
2022/10/06 11:12:59;;;;;;;3.78;1.52;;;27.80;59.70;;;;;;5073767;28;20391;-57
2022/10/06 11:16:10;;;;;;;2.88;1.48;;;28.40;61.70;;;;;;5073763;28;20534;-56
2022/10/06 11:18:56;;;;;;;12.05;1.50;;;29.80;59.20;;;;;;5073198;28;20041;-56
2022/10/06 11:21:26;;;;;;;7.32;1.75;;;30.50;56.40;;;;;;5073628;28;20016;-56
2022/10/06 11:24:01;;;;;;;8.20;2.28;;;30.30;54.20;;;;;;5073411;28;20020;-58
2022/10/06 11:26:39;;;;;;;3.83;1.33;;;31.20;54.50;;;;;;5073238;28;20035;-55
2022/10/06 11:29:14;;;;;;;9.45;1.63;;;31.30;52.50;;;;;;5072586;28;20483;-57
2022/10/06 11:31:46;;;;;;;7.97;1.77;;;31.70;52.10;;;;;;5073501;28;20094;-57
2022/10/06 11:34:13;;;;;;;22.23;2.38;;;31.20;51.40;;;;;;5073406;28;20024;-55
2022/10/06 11:36:43;;;;;;;11.85;2.20;;;32.40;53.00;;;;;;5073324;28;20033;-55
2022/10/06 11:39:18;;;;;;;5.00;1.60;;;32.60;50.00;;;;;;5072908;28;20047;-54
2022/10/06 11:41:51;;;;;;;10.85;1.67;;;32.40;49.90;;;;;;5073069;28;20017;-55
2022/10/06 11:44:32;;;;;;;5.30;1.40;;;31.90;49.30;;;;;;5073116;28;20025;-57
2022/10/06 11:47:06;;;;;;;6.22;1.45;;;31.90;51.50;;;;;;5072860;28;20027;-55
2022/10/06 11:49:50;;;;;;;6.38;1.65;;;31.60;50.10;;;;;;5073158;28;20025;-56
2022/10/06 11:52:16;;;;;;;5.80;1.98;;;32.30;49.20;;;;;;5072818;28;20659;-56
2022/10/06 11:54:44;;;;;;;10.93;2.15;;;32.60;50.90;;;;;;5072770;28;20122;-57
2022/10/06 11:57:22;;;;;;;5.53;2.30;;;32.60;51.40;;;;;;5071500;28;20028;-55
2022/10/06 11:59:49;;;;;;;6.47;2.08;;;31.20;48.80;;;;;;5058543;28;20033;-56
2022/10/06 12:02:33;;;;;;;8.00;2.50;;;29.80;52.70;;;;;;5051327;28;20057;-55
2022/10/06 12:05:08;;;;;;;10.10;2.20;;;29.90;52.70;;;;;;5051025;28;20032;-54
2022/10/06 12:07:56;;;;;;;13.18;2.05;;;30.20;51.50;;;;;;5051232;28;20643;-56
2022/10/06 12:10:28;;;;;;;6.95;4.05;;;31.00;51.40;;;;;;5050964;28;20076;-55
2022/10/06 12:13:21;;;;;;;6.80;1.80;;;31.80;51.00;;;;;;5051059;28;20052;-56
2022/10/06 12:15:55;;;;;;;9.63;2.50;;;32.60;49.70;;;;;;5051372;28;20029;-57
2022/10/06 12:18:29;;;;;;;8.25;1.95;;;32.00;48.60;;;;;;5051137;28;20053;-56
2022/10/06 12:20:58;;;;;;;6.57;1.48;;;31.20;49.50;;;;;;5050984;28;20036;-58
2022/10/06 12:23:45;;;;;;;8.05;1.80;;;31.20;48.90;;;;;;5051063;28;20027;-55
2022/10/06 12:26:28;;;;;;;9.98;1.90;;;30.60;49.80;;;;;;5050901;28;20087;-57
2022/10/06 12:29:20;;;;;;;4.32;1.95;;;31.10;50.20;;;;;;5050727;28;20020;-55
2022/10/06 12:32:41;;;;;;;12.00;2.40;;;31.90;50.30;;;;;;5051059;28;20021;-56
2022/10/06 12:35:06;;;;;;;9.05;2.53;;;31.00;49.10;;;;;;5059912;28;20052;-52
2022/10/06 12:37:41;;;;;;;2.60;1.30;;;30.40;49.50;;;;;;5049698;28;20021;-54
2022/10/06 12:40:42;;;;;;;10.00;2.20;;;30.80;51.20;;;;;;5050274;28;20044;-54
2022/10/06 12:43:20;;;;;;;13.40;2.35;;;31.40;50.90;;;;;;5050419;28;20083;-55
2022/10/06 12:45:54;;;;;;;6.68;2.22;;;30.40;50.20;;;;;;5050691;28;20033;-55
2022/10/06 12:48:32;;;;;;;3.88;1.70;;;31.50;49.60;;;;;;5050465;28;20029;-54
2022/10/06 12:51:11;;;;;;;3.90;1.88;;;31.40;48.90;;;;;;5049009;28;20104;-53
2022/10/06 12:54:04;;;;;;;6.15;1.80;;;31.50;48.30;;;;;;5050543;28;20020;-57
2022/10/06 12:56:34;;;;;;;3.35;1.92;;;32.00;49.10;;;;;;5050565;28;20025;-57
2022/10/06 12:59:30;;;;;;;9.48;2.10;;;31.90;48.80;;;;;;5050129;28;20017;-56
2022/10/06 13:02:24;;;;;;;14.95;1.92;;;31.60;48.00;;;;;;5053715;28;20033;-55
2022/10/06 13:04:52;;;;;;;13.63;2.03;;;32.20;48.90;;;;;;5050390;28;20041;-53
2022/10/06 13:07:22;;;;;;;7.85;2.10;;;31.80;47.70;;;;;;5050458;28;20025;-54
2022/10/06 13:09:51;;;;;;;6.28;2.00;;;32.40;48.20;;;;;;5049965;28;20053;-56
2022/10/06 13:12:35;;;;;;;13.63;2.08;;;32.60;48.00;;;;;;5050342;28;20025;-53
2022/10/06 13:15:32;;;;;;;13.73;2.15;;;31.40;47.40;;;;;;5050119;28;20049;-56
2022/10/06 13:18:11;;;;;;;8.40;2.50;;;30.60;48.50;;;;;;5050047;28;20112;-52
2022/10/06 13:20:56;;;;;;;4.78;2.30;;;30.60;51.00;;;;;;5050275;28;20060;-55
2022/10/06 13:23:33;;;;;;;7.35;2.28;;;31.90;49.10;;;;;;5050297;28;20025;-54
2022/10/06 13:26:13;;;;;;;9.18;1.77;;;32.40;48.40;;;;;;5049823;28;20384;-55
2022/10/06 13:28:42;;;;;;;9.27;2.95;;;32.70;47.10;;;;;;5050303;28;20119;-55